Time;durP1;ratioP1;P1;durP2;ratioP2;P2;SDS_P1;SDS_P2;PMS_P1;PMS_P2;Temp;Humidity;BMP_temperature;BMP_pressure;BME280_temperature;BME280_humidity;BME280_pressure;Samples;Min_cycle;Max_cycle;Signal;HPM_P1;HPM_P2
2023/10/18 00:01:04;;;;;;;9.02;7.85;;;;;;;6.15;100.00;101222.28;4997787;28;20027;-47
2023/10/18 00:03:31;;;;;;;9.77;8.18;;;;;;;6.14;100.00;101218.78;4998890;28;20022;-47
2023/10/18 00:05:58;;;;;;;10.95;8.35;;;;;;;6.14;100.00;101210.03;5000164;28;20030;-47
2023/10/18 00:08:23;;;;;;;12.05;8.00;;;;;;;6.11;100.00;101211.91;5001122;28;20042;-46
2023/10/18 00:10:53;;;;;;;15.23;8.05;;;;;;;6.13;100.00;101217.09;5004323;28;20395;-47
2023/10/18 00:13:22;;;;;;;11.82;8.52;;;;;;;6.14;100.00;101212.66;4997885;28;20489;-46
2023/10/18 00:15:52;;;;;;;9.32;7.43;;;;;;;6.12;100.00;101210.09;4998356;28;20131;-46
2023/10/18 00:18:18;;;;;;;12.48;8.50;;;;;;;6.15;100.00;101211.75;4997247;28;20029;-47
2023/10/18 00:20:43;;;;;;;11.00;8.00;;;;;;;6.13;100.00;101206.53;4997956;28;20032;-47
2023/10/18 00:23:10;;;;;;;11.15;8.27;;;;;;;6.13;100.00;101211.81;4998736;28;20033;-46
2023/10/18 00:25:36;;;;;;;11.43;7.97;;;;;;;6.11;100.00;101203.97;4995412;28;20105;-49
2023/10/18 00:28:03;;;;;;;11.93;8.40;;;;;;;6.14;100.00;101199.47;5000322;28;20033;-47
2023/10/18 00:30:30;;;;;;;13.05;8.27;;;;;;;6.13;100.00;101203.03;4994149;28;20052;-46
2023/10/18 00:32:55;;;;;;;11.52;7.57;;;;;;;6.12;100.00;101207.47;4997234;28;20034;-46
2023/10/18 00:35:20;;;;;;;12.15;7.75;;;;;;;6.13;100.00;101209.19;4995288;28;20030;-46
2023/10/18 00:37:48;;;;;;;9.25;8.27;;;;;;;6.11;100.00;101206.63;5001893;28;20030;-46
2023/10/18 00:43:16;;;;;;;10.95;7.25;;;;;;;6.14;100.00;101196.84;4998681;28;20458;-46
2023/10/18 00:45:47;;;;;;;12.02;8.13;;;;;;;6.13;100.00;101200.41;4999660;28;20082;-47
2023/10/18 00:48:13;;;;;;;10.32;8.13;;;;;;;6.13;100.00;101200.41;4996061;28;20038;-46
2023/10/18 00:50:42;;;;;;;10.95;7.72;;;;;;;6.11;100.00;101198.72;5000269;28;20023;-46
2023/10/18 00:53:08;;;;;;;11.95;8.38;;;;;;;6.14;100.00;101199.47;4998781;28;20068;-47
2023/10/18 00:55:34;;;;;;;9.32;7.75;;;;;;;6.11;100.00;101188.16;4996295;28;20430;-46
2023/10/18 00:58:04;;;;;;;11.18;7.05;;;;;;;6.13;100.00;101185.44;4991861;28;20498;-48
2023/10/18 01:00:30;;;;;;;10.20;7.50;;;;;;;6.13;100.00;101172.25;4998117;28;20083;-47
2023/10/18 01:03:06;;;;;;;11.20;7.82;;;;;;;6.13;100.00;101176.66;5000107;28;20473;-49
2023/10/18 01:05:31;;;;;;;11.07;7.80;;;;;;;6.13;100.00;101168.75;5005662;28;20349;-48
2023/10/18 01:07:58;;;;;;;9.65;7.63;;;;;;;6.11;100.00;101172.34;4996993;28;20049;-47
2023/10/18 01:10:24;;;;;;;10.32;8.20;;;;;;;6.11;100.00;101163.56;5000706;28;20038;-46
2023/10/18 01:12:52;;;;;;;10.30;7.65;;;;;;;6.11;100.00;101156.50;4996853;28;20561;-46
2023/10/18 01:15:19;;;;;;;9.82;8.10;;;;;;;6.10;99.99;101151.31;4995612;28;20018;-47
2023/10/18 01:17:45;;;;;;;11.65;8.20;;;;;;;6.10;100.00;101151.31;4996758;28;20558;-47
2023/10/18 01:20:53;;;;;;;12.45;8.00;;;;;;;6.09;100.00;101142.53;4999038;28;20018;-47
2023/10/18 01:23:00;;;;;;;10.98;7.65;;;;;;;6.08;99.86;101143.50;4998905;28;20469;-46
2023/10/18 01:25:25;;;;;;;9.70;7.30;;;;;;;6.08;99.95;101145.28;4996687;28;20031;-46
2023/10/18 01:27:51;;;;;;;11.00;7.78;;;;;;;6.09;99.67;101141.69;4997688;28;20124;-48
2023/10/18 01:30:20;;;;;;;9.65;7.70;;;;;;;6.07;99.78;101141.78;4994820;28;20071;-49
2023/10/18 01:32:45;;;;;;;9.27;7.57;;;;;;;6.07;99.95;101135.66;4997194;28;20049;-47
2023/10/18 01:35:13;;;;;;;10.18;7.50;;;;;;;6.06;99.60;101121.63;5000034;28;20384;-46
2023/10/18 01:37:39;;;;;;;9.13;7.53;;;;;;;6.06;99.71;101131.31;5002094;28;20026;-46
2023/10/18 01:40:35;;;;;;;10.90;7.53;;;;;;;6.04;99.65;101125.25;4993124;28;20027;-47
2023/10/18 01:43:00;;;;;;;10.80;8.20;;;;;;;6.04;99.76;101122.63;4998896;28;20052;-47
2023/10/18 01:45:26;;;;;;;11.82;8.13;;;;;;;6.04;99.57;101120.84;4996814;28;20056;-47
2023/10/18 01:47:52;;;;;;;11.65;7.18;;;;;;;6.02;99.27;101111.31;4996583;28;20048;-46
2023/10/18 01:50:18;;;;;;;9.45;7.50;;;;;;;6.00;99.22;101108.75;4997052;28;20034;-48
2023/10/18 01:52:44;;;;;;;11.60;7.53;;;;;;;5.99;99.26;101109.69;4998463;28;20054;-49
2023/10/18 01:55:12;;;;;;;10.02;7.72;;;;;;;5.98;99.38;101102.72;4991576;28;20034;-46
2023/10/18 01:57:38;;;;;;;11.13;7.35;;;;;;;5.96;99.67;101088.75;4995244;28;20087;-46
2023/10/18 02:00:03;;;;;;;9.63;7.57;;;;;;;5.97;99.60;101086.97;4995295;28;20034;-46
2023/10/18 02:02:32;;;;;;;12.57;7.35;;;;;;;5.96;99.30;101078.19;4996022;28;20472;-46
2023/10/18 02:04:57;;;;;;;13.38;8.02;;;;;;;5.95;99.58;101081.75;4994198;28;20023;-46
2023/10/18 02:07:22;;;;;;;11.68;7.72;;;;;;;5.93;99.41;101081.84;5000365;28;20036;-46
2023/10/18 02:09:48;;;;;;;9.90;7.55;;;;;;;5.92;99.29;101088.03;4999846;28;20439;-46
2023/10/18 02:12:19;;;;;;;13.07;8.20;;;;;;;5.89;99.52;101082.91;5001201;28;20097;-47
2023/10/18 02:14:45;;;;;;;12.10;7.57;;;;;;;5.89;99.53;101069.72;4998506;28;20041;-47
2023/10/18 02:17:10;;;;;;;9.13;7.30;;;;;;;5.87;99.35;101068.97;5023654;28;20358;-46
2023/10/18 02:19:37;;;;;;;10.80;7.93;;;;;;;5.86;99.25;101066.41;5003872;28;20049;-46
2023/10/18 02:22:07;;;;;;;9.48;7.38;;;;;;;5.87;99.48;101068.13;5001960;28;20030;-47
2023/10/18 02:24:33;;;;;;;9.05;7.68;;;;;;;5.86;99.18;101064.66;4999680;28;20034;-46
2023/10/18 02:27:00;;;;;;;11.20;7.43;;;;;;;5.84;99.31;101065.66;4999336;28;20392;-46
2023/10/18 02:29:27;;;;;;;9.38;7.47;;;;;;;5.84;99.10;101073.56;4997731;28;20073;-48
2023/10/18 02:31:56;;;;;;;11.40;7.75;;;;;;;5.81;99.22;101071.97;5002840;28;20058;-47
2023/10/18 02:34:24;;;;;;;8.90;7.53;;;;;;;5.82;99.27;101073.63;4998188;28;20074;-47
2023/10/18 02:36:51;;;;;;;10.98;7.68;;;;;;;5.82;99.26;101067.53;4998381;28;20591;-47
2023/10/18 02:39:22;;;;;;;10.30;7.68;;;;;;;5.82;99.11;101057.00;4996270;28;20035;-47
2023/10/18 02:41:49;;;;;;;9.70;7.47;;;;;;;5.82;99.32;101064.91;4994960;28;20519;-46
2023/10/18 02:44:21;;;;;;;9.93;7.90;;;;;;;5.81;99.23;101056.16;4999602;28;20586;-46
2023/10/18 02:46:51;;;;;;;9.98;7.35;;;;;;;5.82;99.20;101049.06;4998389;28;20111;-46
2023/10/18 02:49:17;;;;;;;10.63;7.55;;;;;;;5.81;98.95;101050.88;4997750;28;20034;-47
2023/10/18 02:51:43;;;;;;;12.50;7.85;;;;;;;5.81;98.90;101042.97;4999884;28;20388;-46
2023/10/18 02:54:17;;;;;;;10.65;7.55;;;;;;;5.80;99.14;101051.78;4998669;28;20074;-47
2023/10/18 02:56:50;;;;;;;10.43;7.60;;;;;;;5.78;99.00;101040.50;5000598;28;20018;-46
2023/10/18 02:59:21;;;;;;;10.90;7.50;;;;;;;5.78;99.18;101036.97;4998661;28;20030;-46
2023/10/18 03:01:48;;;;;;;10.40;8.10;;;;;;;5.77;98.99;101041.41;5001454;28;20058;-47
2023/10/18 03:04:16;;;;;;;9.48;7.63;;;;;;;5.75;99.35;101028.31;5001958;28;20050;-47
2023/10/18 03:06:43;;;;;;;10.88;7.95;;;;;;;5.75;99.28;101024.84;5000766;28;20026;-47
2023/10/18 03:09:26;;;;;;;9.88;7.43;;;;;;;5.72;99.33;101025.84;4998035;28;20054;-46
2023/10/18 03:11:53;;;;;;;10.43;7.88;;;;;;;5.73;98.98;101024.06;4999134;28;20026;-47
2023/10/18 03:14:19;;;;;;;9.88;7.40;;;;;;;5.71;99.33;101021.50;4997822;28;20092;-47
2023/10/18 03:16:46;;;;;;;12.00;8.25;;;;;;;5.70;99.14;101019.81;4998305;28;20085;-46
2023/10/18 03:19:12;;;;;;;11.05;7.80;;;;;;;5.69;99.18;101012.81;4997926;28;20121;-50
2023/10/18 03:21:48;;;;;;;9.02;7.65;;;;;;;5.69;99.35;101004.06;5000313;28;20167;-50
2023/10/18 03:24:13;;;;;;;10.88;7.70;;;;;;;5.67;99.25;101001.50;4998134;28;20533;-47
2023/10/18 03:26:40;;;;;;;9.48;7.80;;;;;;;5.67;99.17;101006.78;4998800;28;20101;-48
2023/10/18 03:29:06;;;;;;;10.80;7.68;;;;;;;5.66;99.32;100999.84;4997162;28;20113;-47
2023/10/18 03:31:36;;;;;;;10.80;8.65;;;;;;;5.66;99.63;101004.22;4997062;28;20478;-48
2023/10/18 03:34:02;;;;;;;13.48;8.20;;;;;;;5.66;99.45;100991.94;4998202;28;20485;-47
2023/10/18 03:36:32;;;;;;;12.65;7.53;;;;;;;5.64;99.69;100993.78;4997820;28;20480;-47
2023/10/18 03:39:00;;;;;;;11.43;8.18;;;;;;;5.64;99.53;100991.13;4994487;28;20519;-47
2023/10/18 03:41:40;;;;;;;11.47;8.17;;;;;;;5.64;99.37;100982.38;5001142;28;20037;-48
2023/10/18 03:44:06;;;;;;;10.35;8.35;;;;;;;5.63;99.68;100973.63;4998168;28;20101;-46
2023/10/18 03:46:38;;;;;;;10.93;8.10;;;;;;;5.63;99.38;100968.38;5001829;28;20630;-46
2023/10/18 03:49:08;;;;;;;14.43;8.80;;;;;;;5.60;99.75;100958.00;4994986;28;20132;-46
2023/10/18 03:51:33;;;;;;;9.85;8.02;;;;;;;5.63;99.26;100956.97;4998656;28;20022;-47
2023/10/18 03:54:00;;;;;;;13.90;8.00;;;;;;;5.63;99.50;100964.88;4995534;28;20385;-46
2023/10/18 03:56:26;;;;;;;12.00;7.72;;;;;;;5.61;99.41;100949.13;4997895;28;20086;-46
2023/10/18 03:59:00;;;;;;;12.63;7.93;;;;;;;5.64;99.22;100948.97;4995050;28;20117;-46
2023/10/18 04:01:27;;;;;;;12.45;8.25;;;;;;;5.63;99.47;100947.28;5000451;28;20038;-48
2023/10/18 04:03:52;;;;;;;11.98;7.75;;;;;;;5.62;99.33;100948.22;4994331;28;20041;-48
2023/10/18 04:06:28;;;;;;;11.57;7.75;;;;;;;5.64;99.29;100950.75;4998092;28;20397;-47
2023/10/18 04:08:58;;;;;;;9.82;7.68;;;;;;;5.64;99.24;100945.50;4997586;28;20061;-47
2023/10/18 04:11:26;;;;;;;9.95;7.93;;;;;;;5.64;98.94;100942.88;4996859;28;20101;-46
2023/10/18 04:13:51;;;;;;;9.23;7.32;;;;;;;5.64;99.08;100943.69;4999306;28;20034;-49
2023/10/18 04:16:17;;;;;;;14.55;8.45;;;;;;;5.64;99.07;100940.22;5001609;28;20102;-47
2023/10/18 04:18:43;;;;;;;12.70;8.50;;;;;;;5.64;99.00;100935.78;4997872;28;20057;-46
2023/10/18 04:21:25;;;;;;;8.70;7.50;;;;;;;5.65;99.18;100928.75;4998313;28;20600;-46
2023/10/18 04:23:53;;;;;;;14.02;7.57;;;;;;;5.66;99.16;100923.41;5000365;28;20163;-46
2023/10/18 04:26:18;;;;;;;8.85;7.38;;;;;;;5.66;99.11;100923.41;4999752;28;20040;-48
2023/10/18 04:28:45;;;;;;;9.70;7.50;;;;;;;5.67;98.89;100925.09;4995733;28;20025;-47
2023/10/18 04:31:21;;;;;;;8.95;7.07;;;;;;;5.66;99.00;100922.53;4996254;28;20033;-46
2023/10/18 04:33:50;;;;;;;12.57;7.88;;;;;;;5.67;98.60;100914.56;4998599;28;20353;-46
2023/10/18 04:36:18;;;;;;;8.90;7.40;;;;;;;5.67;98.83;100919.81;4993333;28;20117;-46
2023/10/18 04:38:46;;;;;;;14.10;7.65;;;;;;;5.67;98.78;100911.91;4994956;28;20423;-47
2023/10/18 04:43:49;;;;;;;8.52;7.13;;;;;;;5.67;98.69;100904.00;4995062;28;20056;-46
2023/10/18 04:46:14;;;;;;;11.00;7.70;;;;;;;5.68;98.49;100907.50;4996942;28;20507;-46
2023/10/18 04:54:08;;;;;;;10.93;7.70;;;;;;;5.70;98.38;100901.22;4996720;28;20069;-46
2023/10/18 04:56:34;;;;;;;11.23;8.48;;;;;;;5.70;98.25;100897.75;4997665;28;20034;-47
2023/10/18 04:59:06;;;;;;;11.30;7.65;;;;;;;5.70;98.21;100884.56;4994745;28;20038;-48
2023/10/18 05:01:36;;;;;;;9.63;7.20;;;;;;;5.70;98.02;100882.75;4997232;28;20087;-47
2023/10/18 05:04:20;;;;;;;10.18;8.02;;;;;;;5.70;98.18;100887.19;4994172;28;20042;-47
2023/10/18 05:06:53;;;;;;;12.10;7.85;;;;;;;5.70;98.08;100874.03;4997387;28;20526;-47
2023/10/18 05:09:19;;;;;;;10.93;7.85;;;;;;;5.70;97.74;100872.22;4998238;28;20534;-48
2023/10/18 05:11:47;;;;;;;12.35;7.45;;;;;;;5.71;97.85;100871.31;4996616;28;20163;-48
2023/10/18 05:14:19;;;;;;;11.48;7.65;;;;;;;5.70;97.88;100868.75;4998156;28;20048;-47
2023/10/18 05:16:46;;;;;;;10.70;7.20;;;;;;;5.69;98.09;100862.59;4996894;28;20038;-47
2023/10/18 05:19:12;;;;;;;8.88;7.47;;;;;;;5.68;97.96;100853.03;4997043;28;20524;-47
2023/10/18 05:21:39;;;;;;;11.68;8.10;;;;;;;5.70;97.81;100860.84;4996486;28;20061;-46
2023/10/18 05:24:05;;;;;;;10.65;7.97;;;;;;;5.71;97.92;100860.75;5005408;28;20030;-47
2023/10/18 05:26:33;;;;;;;11.10;8.13;;;;;;;5.70;97.99;100861.69;4995687;28;20023;-47
2023/10/18 05:29:01;;;;;;;14.60;8.10;;;;;;;5.70;97.78;100851.13;4999561;28;20018;-47
2023/10/18 05:31:48;;;;;;;11.57;8.48;;;;;;;5.71;97.67;100851.97;4990295;28;20041;-46
2023/10/18 05:41:51;;;;;;;13.60;8.77;;;;;;;5.72;97.08;100851.06;4994644;28;20125;-46
2023/10/18 05:44:17;;;;;;;11.48;8.27;;;;;;;5.71;97.26;100846.72;4996959;28;20488;-47
2023/10/18 05:46:44;;;;;;;10.73;8.18;;;;;;;5.71;97.66;100852.84;4999205;28;20077;-47
2023/10/18 05:49:16;;;;;;;11.40;8.20;;;;;;;5.71;97.37;100847.59;4999899;28;20065;-46
2023/10/18 05:51:54;;;;;;;12.60;8.00;;;;;;;5.70;97.23;100845.03;5007740;28;20022;-47
2023/10/18 05:54:24;;;;;;;11.93;8.30;;;;;;;5.69;97.25;100846.78;4999414;28;20048;-47
2023/10/18 05:56:50;;;;;;;11.15;7.95;;;;;;;5.70;97.44;100843.25;5004759;28;20030;-47
2023/10/18 05:59:37;;;;;;;13.10;8.40;;;;;;;5.70;97.21;100842.41;4999328;28;20060;-46
2023/10/18 06:02:02;;;;;;;12.27;7.90;;;;;;;5.69;97.10;100832.78;5006331;28;20049;-47
2023/10/18 06:04:37;;;;;;;10.50;8.30;;;;;;;5.70;96.58;100840.59;5001043;28;20041;-47
2023/10/18 06:07:10;;;;;;;14.05;8.35;;;;;;;5.69;96.88;100836.25;5001133;28;20030;-48
2023/10/18 06:09:46;;;;;;;10.48;8.32;;;;;;;5.69;96.81;100832.78;4996554;28;20034;-48
2023/10/18 06:12:21;;;;;;;13.27;8.20;;;;;;;5.69;96.75;100828.34;4998411;28;20037;-47
2023/10/18 06:14:46;;;;;;;10.68;7.72;;;;;;;5.69;96.54;100828.34;4994473;28;20116;-47
2023/10/18 06:17:19;;;;;;;17.20;8.85;;;;;;;5.69;96.71;100815.16;4999062;28;20030;-47
2023/10/18 06:19:47;;;;;;;10.98;7.47;;;;;;;5.70;96.88;100808.97;5004621;28;20356;-47
2023/10/18 06:22:23;;;;;;;11.10;7.75;;;;;;;5.70;96.38;100808.97;4999684;28;20501;-47
2023/10/18 06:24:51;;;;;;;10.18;7.40;;;;;;;5.69;96.51;100812.53;4993341;28;20038;-47
2023/10/18 06:27:17;;;;;;;12.20;8.60;;;;;;;5.70;96.25;100805.50;5002317;28;20026;-47
2023/10/18 06:29:49;;;;;;;12.90;7.72;;;;;;;5.70;96.28;100803.72;4999500;28;20042;-46
2023/10/18 06:32:15;;;;;;;14.93;8.07;;;;;;;5.69;96.24;100807.25;4997982;28;20091;-47
2023/10/18 06:34:43;;;;;;;10.43;7.68;;;;;;;5.70;95.96;100800.22;4997187;28;20030;-46
2023/10/18 06:37:20;;;;;;;13.13;7.82;;;;;;;5.70;95.94;100794.97;5002492;28;20079;-47
2023/10/18 06:39:46;;;;;;;11.23;7.57;;;;;;;5.70;96.25;100790.53;5000628;28;20120;-47
2023/10/18 06:42:12;;;;;;;14.18;8.05;;;;;;;5.73;96.15;100789.53;5001704;28;20030;-46
2023/10/18 06:44:40;;;;;;;9.77;7.50;;;;;;;5.72;96.17;100786.00;4996281;28;20030;-47
2023/10/18 06:47:06;;;;;;;11.32;7.70;;;;;;;5.74;95.83;100785.94;5002287;28;20054;-49
2023/10/18 06:49:31;;;;;;;9.60;7.65;;;;;;;5.75;95.89;100783.22;5004842;28;20395;-47
2023/10/18 06:51:57;;;;;;;12.98;8.50;;;;;;;5.77;95.92;100779.66;5001938;28;20022;-50
2023/10/18 06:54:31;;;;;;;13.40;7.38;;;;;;;5.78;95.90;100774.28;4996341;28;20038;-47
2023/10/18 06:57:15;;;;;;;10.30;7.63;;;;;;;5.78;95.79;100769.03;4998563;28;20111;-47
2023/10/18 06:59:42;;;;;;;12.07;7.90;;;;;;;5.81;95.62;100760.06;5001321;28;20041;-48
2023/10/18 07:02:11;;;;;;;16.42;7.65;;;;;;;5.82;95.29;100773.16;4998842;28;20423;-48
2023/10/18 07:04:37;;;;;;;16.33;8.80;;;;;;;5.84;95.78;100762.53;4999170;28;20446;-47
2023/10/18 07:07:13;;;;;;;11.32;7.90;;;;;;;5.85;95.38;100761.59;5002504;28;20022;-46
2023/10/18 07:09:38;;;;;;;12.07;7.95;;;;;;;5.86;95.27;100758.88;4999743;28;20117;-49
2023/10/18 07:12:04;;;;;;;9.88;7.63;;;;;;;5.89;95.40;100763.94;4999129;28;20521;-48
2023/10/18 07:14:32;;;;;;;10.52;7.32;;;;;;;5.92;95.37;100760.31;5001931;28;20422;-47
2023/10/18 07:17:01;;;;;;;9.80;7.20;;;;;;;5.95;95.33;100760.13;5008609;28;20022;-47
2023/10/18 07:19:27;;;;;;;10.20;7.73;;;;;;;5.98;95.29;100751.19;5005130;28;20038;-47
2023/10/18 07:22:04;;;;;;;13.50;8.07;;;;;;;6.01;94.80;100738.72;4993380;28;20039;-46
2023/10/18 07:24:34;;;;;;;11.35;7.25;;;;;;;6.05;94.21;100740.22;4996469;28;20116;-47
2023/10/18 07:26:59;;;;;;;11.60;7.38;;;;;;;6.08;94.19;100736.56;4999791;28;20026;-47
2023/10/18 07:29:27;;;;;;;10.73;7.15;;;;;;;6.10;94.93;100739.94;4996982;28;20032;-50
2023/10/18 07:31:59;;;;;;;10.40;7.53;;;;;;;6.16;94.30;100736.09;4996575;28;20487;-47
2023/10/18 07:34:32;;;;;;;13.25;7.57;;;;;;;6.21;93.81;100734.88;4997754;28;20026;-47
2023/10/18 07:36:57;;;;;;;11.57;7.55;;;;;;;6.28;94.61;100728.28;4998162;28;20029;-46
2023/10/18 07:39:25;;;;;;;13.20;7.30;;;;;;;6.31;93.78;100732.53;4998694;28;20531;-47
2023/10/18 07:41:52;;;;;;;11.80;7.07;;;;;;;6.34;93.88;100718.31;4999678;28;20068;-47
2023/10/18 07:44:18;;;;;;;9.65;7.38;;;;;;;6.39;93.09;100727.63;4995816;28;20634;-48
2023/10/18 07:46:43;;;;;;;14.25;8.07;;;;;;;6.43;92.92;100713.31;5006234;28;20053;-49
2023/10/18 07:49:15;;;;;;;12.63;7.75;;;;;;;6.47;93.29;100712.19;4993514;28;20072;-48
2023/10/18 07:51:48;;;;;;;11.13;7.60;;;;;;;6.50;92.35;100708.50;4998535;28;20026;-48
2023/10/18 07:54:15;;;;;;;13.48;7.38;;;;;;;6.57;91.76;100706.34;4988925;28;20437;-50
2023/10/18 07:56:51;;;;;;;11.88;7.38;;;;;;;6.58;92.02;100702.78;4997371;28;20034;-49
2023/10/18 07:59:45;;;;;;;12.55;7.95;;;;;;;6.63;91.82;100704.16;4999091;28;20018;-48
2023/10/18 08:04:47;;;;;;;12.00;7.15;;;;;;;6.75;91.76;100699.91;4995207;28;20083;-48
2023/10/18 08:07:15;;;;;;;12.57;7.93;;;;;;;6.83;91.43;100702.09;4992950;28;20438;-49
2023/10/18 08:09:44;;;;;;;12.63;7.68;;;;;;;6.93;90.79;100694.41;4996658;28;20037;-48
2023/10/18 08:14:49;;;;;;;10.57;7.43;;;;;;;7.14;89.16;100694.81;4970355;28;20048;-49
2023/10/18 08:17:33;;;;;;;12.20;7.45;;;;;;;7.23;88.81;100679.22;4995249;28;20091;-49
2023/10/18 08:22:49;;;;;;;8.85;7.07;;;;;;;7.44;89.19;100691.13;5002250;28;20049;-48
2023/10/18 08:25:21;;;;;;;12.88;8.77;;;;;;;7.51;88.48;100684.47;4987500;28;20037;-48
2023/10/18 08:27:52;;;;;;;16.75;7.65;;;;;;;7.58;88.78;100676.06;5007605;28;20065;-48
2023/10/18 08:30:38;;;;;;;12.38;7.88;;;;;;;7.66;87.80;100674.69;4991972;28;20108;-48
2023/10/18 08:33:05;;;;;;;12.65;7.30;;;;;;;7.73;88.48;100665.41;5000080;28;20075;-48
2023/10/18 08:35:31;;;;;;;11.63;7.60;;;;;;;7.80;87.90;100661.41;4995292;28;20041;-48
2023/10/18 08:38:01;;;;;;;10.73;7.13;;;;;;;7.88;87.06;100667.00;4997378;28;20441;-48
2023/10/18 08:43:08;;;;;;;11.38;6.80;;;;;;;8.00;86.68;100656.53;4994014;28;20064;-47
2023/10/18 08:45:36;;;;;;;9.50;6.63;;;;;;;8.00;85.35;100660.03;4993471;28;20520;-48
2023/10/18 08:48:09;;;;;;;10.00;7.20;;;;;;;8.04;86.08;100660.66;4992915;28;20396;-46
2023/10/18 08:50:39;;;;;;;9.48;7.15;;;;;;;8.09;86.48;100655.91;4994538;28;20026;-50
2023/10/18 08:53:04;;;;;;;;;;;;;;;8.20;87.80;100657.81;4996235;28;20517;-47
2023/10/18 08:55:45;;;;;;;10.35;7.32;;;;;;;8.27;86.30;100645.84;4991690;28;19906;-48
2023/10/18 08:58:17;;;;;;;10.77;7.13;;;;;;;8.35;85.43;100651.44;4998805;28;20038;-49
2023/10/18 09:03:13;;;;;;;10.82;6.65;;;;;;;8.56;85.42;100643.81;4994876;28;20045;-49
2023/10/18 09:05:40;;;;;;;8.88;6.90;;;;;;;8.64;83.19;100641.47;4997299;28;20102;-48
2023/10/18 09:08:08;;;;;;;9.07;6.63;;;;;;;8.75;83.85;100623.97;4999498;28;20386;-49
2023/10/18 09:10:43;;;;;;;10.48;6.60;;;;;;;8.85;83.48;100636.41;4996468;28;20041;-49
2023/10/18 09:18:19;;;;;;;10.23;6.15;;;;;;;9.18;81.61;100611.03;4996377;28;20392;-49
2023/10/18 09:20:46;;;;;;;12.43;6.28;;;;;;;9.26;80.94;100602.53;4997888;28;20026;-52
2023/10/18 09:23:19;;;;;;;8.63;6.38;;;;;;;9.36;81.30;100595.56;4995011;28;20109;-50
2023/10/18 09:25:48;;;;;;;8.93;6.20;;;;;;;9.52;80.91;100583.81;4999384;28;20079;-49
2023/10/18 09:28:25;;;;;;;9.95;6.40;;;;;;;9.65;80.29;100591.66;5009853;28;20096;-48
2023/10/18 09:31:00;;;;;;;9.65;6.03;;;;;;;9.80;80.81;100585.19;5008698;28;20030;-48
2023/10/18 09:33:27;;;;;;;11.18;6.05;;;;;;;9.98;80.35;100594.34;4995465;28;20064;-49
2023/10/18 09:35:56;;;;;;;9.88;6.13;;;;;;;10.09;79.02;100590.88;4998261;28;20040;-51
2023/10/18 09:38:21;;;;;;;;;;;;;;;10.20;82.00;100584.69;4999553;28;20459;-47
2023/10/18 09:40:48;;;;;;;8.33;5.80;;;;;;;10.31;78.59;100578.56;5002012;28;20007;-50
2023/10/18 09:43:14;;;;;;;7.47;5.13;;;;;;;10.39;76.49;100564.69;5008549;28;20487;-48
2023/10/18 09:45:39;;;;;;;7.50;6.20;;;;;;;10.45;75.63;100564.19;5026695;28;20099;-47
2023/10/18 09:48:08;;;;;;;9.07;5.85;;;;;;;10.50;76.23;100556.69;5001118;28;20034;-48
2023/10/18 09:50:36;;;;;;;11.88;5.85;;;;;;;10.56;76.08;100540.28;4998534;28;20553;-49
2023/10/18 09:53:02;;;;;;;10.75;5.63;;;;;;;10.70;75.70;100549.75;4999802;28;21118;-48
2023/10/18 09:55:28;;;;;;;7.97;5.70;;;;;;;10.83;75.94;100542.47;4993668;28;20720;-48
2023/10/18 09:58:04;;;;;;;6.68;5.35;;;;;;;11.03;75.56;100540.81;5002570;28;20026;-48
2023/10/18 10:00:31;;;;;;;8.05;5.50;;;;;;;11.12;74.24;100531.22;5000996;28;20062;-49
2023/10/18 10:02:57;;;;;;;9.57;5.43;;;;;;;11.22;73.45;100524.16;4994706;28;20048;-51
2023/10/18 10:05:25;;;;;;;8.10;5.78;;;;;;;11.29;72.83;100533.31;4997880;28;20203;-47
2023/10/18 10:08:07;;;;;;;8.93;5.38;;;;;;;11.42;74.19;100524.28;5000057;28;20053;-48
2023/10/18 10:10:45;;;;;;;9.52;5.80;;;;;;;11.53;72.22;100524.22;5004525;28;20082;-48
2023/10/18 10:13:18;;;;;;;8.02;5.15;;;;;;;11.61;72.04;100510.28;4997630;28;20030;-48
2023/10/18 10:15:54;;;;;;;9.07;5.10;;;;;;;11.67;71.79;100507.06;4996674;28;20399;-48
2023/10/18 10:18:24;;;;;;;9.70;5.90;;;;;;;11.86;73.69;100495.66;4989486;28;20042;-48
2023/10/18 10:20:52;;;;;;;11.93;5.72;;;;;;;11.98;72.48;100485.78;4995011;28;20030;-47
2023/10/18 10:23:18;;;;;;;8.50;5.57;;;;;;;12.06;71.10;100488.63;4996388;28;20231;-47
2023/10/18 10:26:13;;;;;;;7.35;5.90;;;;;;;12.14;73.24;100487.91;4991376;28;20473;-47
2023/10/18 10:31:54;;;;;;;8.13;5.25;;;;;;;12.28;72.19;100476.06;5002332;28;20041;-48
2023/10/18 10:34:32;;;;;;;7.38;5.38;;;;;;;12.28;69.64;100471.56;5002611;28;20034;-48
2023/10/18 10:37:12;;;;;;;9.10;5.97;;;;;;;12.32;71.40;100459.66;4996629;28;20080;-47
2023/10/18 10:39:44;;;;;;;9.57;5.60;;;;;;;12.36;70.53;100457.56;4996123;28;20037;-47
2023/10/18 10:42:25;;;;;;;8.13;5.43;;;;;;;12.42;71.05;100449.00;4997867;28;20035;-48
2023/10/18 10:45:23;;;;;;;9.48;5.60;;;;;;;12.48;70.56;100450.28;4996385;28;20096;-47
2023/10/18 10:47:52;;;;;;;9.60;5.93;;;;;;;12.57;70.06;100444.09;4998234;28;20038;-48
2023/10/18 10:50:42;;;;;;;7.15;5.68;;;;;;;12.67;71.70;100439.59;4995052;28;20045;-48
2023/10/18 10:53:15;;;;;;;8.40;5.22;;;;;;;12.74;69.56;100435.41;4995709;28;20022;-49
2023/10/18 10:55:43;;;;;;;8.18;5.55;;;;;;;12.80;68.92;100419.84;4993686;28;20034;-48
2023/10/18 10:58:16;;;;;;;8.82;5.88;;;;;;;12.89;70.28;100416.28;4992520;28;20396;-48
2023/10/18 11:01:06;;;;;;;7.15;5.10;;;;;;;12.93;69.84;100417.72;4993907;28;20087;-49
2023/10/18 11:03:53;;;;;;;8.00;5.82;;;;;;;12.99;69.10;100413.63;5000779;28;20031;-48
2023/10/18 11:06:26;;;;;;;8.07;5.70;;;;;;;13.05;69.20;100395.22;4995359;28;20383;-50
2023/10/18 11:08:54;;;;;;;9.63;5.55;;;;;;;13.13;68.68;100395.34;4997402;28;20030;-48
2023/10/18 11:11:21;;;;;;;7.20;5.50;;;;;;;13.18;67.99;100386.06;4997350;28;20492;-48
2023/10/18 11:13:48;;;;;;;10.32;5.63;;;;;;;13.30;68.95;100388.38;4997860;28;20138;-49
2023/10/18 11:16:15;;;;;;;7.70;5.65;;;;;;;13.36;66.64;100371.00;5001363;28;20082;-48
2023/10/18 11:18:42;;;;;;;8.23;5.38;;;;;;;13.42;67.88;100377.56;4995722;28;20079;-48
2023/10/18 11:21:19;;;;;;;5.35;4.85;;;;;;;13.51;67.12;100368.69;5000856;28;20034;-48
2023/10/18 11:23:49;;;;;;;9.52;5.75;;;;;;;13.58;67.08;100363.59;4996196;28;20038;-48
2023/10/18 11:26:19;;;;;;;8.70;5.60;;;;;;;13.64;66.95;100355.84;4991341;28;20117;-48
2023/10/18 11:28:46;;;;;;;7.53;5.55;;;;;;;13.73;67.79;100353.28;4986084;28;20045;-49
2023/10/18 11:31:13;;;;;;;8.82;5.53;;;;;;;13.75;66.08;100356.63;4995924;28;20075;-48
2023/10/18 11:33:54;;;;;;;9.40;6.07;;;;;;;13.73;66.55;100348.75;4992806;28;20066;-49
2023/10/18 11:36:20;;;;;;;11.23;5.90;;;;;;;13.73;66.40;100340.75;4997819;28;20030;-49
2023/10/18 11:39:07;;;;;;;8.77;5.82;;;;;;;13.71;65.57;100345.41;4995561;28;20117;-48
2023/10/18 11:41:36;;;;;;;8.85;5.25;;;;;;;13.77;67.03;100333.28;4998476;28;20042;-49
2023/10/18 11:44:20;;;;;;;9.60;5.88;;;;;;;13.86;67.38;100329.72;4994019;28;20140;-48
2023/10/18 11:46:47;;;;;;;13.30;6.28;;;;;;;13.92;67.13;100318.41;4992047;28;20111;-48
2023/10/18 11:49:20;;;;;;;8.93;5.30;;;;;;;13.96;66.95;100309.13;4997042;28;20034;-47
2023/10/18 11:51:50;;;;;;;6.95;5.20;;;;;;;13.97;66.24;100294.78;4998382;28;20095;-48
2023/10/18 11:54:35;;;;;;;11.07;6.07;;;;;;;14.02;67.68;100299.66;5000157;28;20053;-48
2023/10/18 11:57:05;;;;;;;8.20;5.70;;;;;;;14.01;66.38;100285.47;4994076;28;20113;-48
2023/10/18 11:59:51;;;;;;;12.18;5.75;;;;;;;14.02;67.15;100283.63;5001387;28;20049;-48
2023/10/18 12:02:16;;;;;;;10.57;5.65;;;;;;;13.95;65.19;100285.25;5001383;28;20033;-48
2023/10/18 12:04:44;;;;;;;8.55;5.53;;;;;;;13.91;65.16;100282.03;4994324;28;20022;-48
2023/10/18 12:07:13;;;;;;;9.27;5.45;;;;;;;13.86;64.33;100282.50;4998458;28;20022;-48
2023/10/18 12:09:51;;;;;;;11.87;5.50;;;;;;;13.83;65.16;100269.44;4999190;28;20030;-47
2023/10/18 12:12:20;;;;;;;11.75;5.20;;;;;;;13.78;64.62;100268.25;4997221;28;20326;-50
2023/10/18 12:14:47;;;;;;;8.85;5.10;;;;;;;13.75;65.17;100252.53;4995579;28;20022;-47
2023/10/18 12:17:13;;;;;;;8.88;5.40;;;;;;;13.75;66.14;100242.69;4995613;28;20083;-48
2023/10/18 12:19:39;;;;;;;9.57;5.57;;;;;;;13.79;67.07;100241.41;4994107;28;20644;-48